createdAt,value
2019-06-10T00:03:20.590Z,9.43
2019-06-10T00:08:16.292Z,7.33
2019-06-10T00:13:12.235Z,10.03
2019-06-10T00:18:33.506Z,7.37
2019-06-10T00:23:06.851Z,9.55
2019-06-10T00:28:05.434Z,7.95
2019-06-10T00:33:03.157Z,9.88
2019-06-10T00:37:59.581Z,7.95
2019-06-10T00:42:56.094Z,7.70
2019-06-10T00:48:06.664Z,8.70
2019-06-10T00:52:51.520Z,7.53
2019-06-10T00:57:47.033Z,7.50
2019-06-10T01:02:42.745Z,7.43
2019-06-10T01:07:38.452Z,10.00
2019-06-10T01:12:34.134Z,8.67
2019-06-10T01:17:31.115Z,8.23
2019-06-10T01:22:27.216Z,10.63
2019-06-10T01:27:22.938Z,12.90
2019-06-10T01:32:18.668Z,9.20
2019-06-10T01:37:14.811Z,8.43
2019-06-10T01:42:13.977Z,8.53
2019-06-10T01:47:12.683Z,7.43
2019-06-10T01:52:07.285Z,7.60
2019-06-10T01:57:03.139Z,9.20
2019-06-10T02:02:03.655Z,8.70
2019-06-10T02:07:01.297Z,7.07
2019-06-10T02:11:57.280Z,7.63
2019-06-10T02:16:52.997Z,7.13
2019-06-10T02:21:50.932Z,10.03
2019-06-10T02:26:46.614Z,8.47
2019-06-10T02:31:43.449Z,8.10
2019-06-10T02:36:39.447Z,8.73
2019-06-10T02:41:36.581Z,10.03
2019-06-10T02:46:36.028Z,7.97
2019-06-10T02:51:31.348Z,9.40
2019-06-10T02:56:31.085Z,13.53
2019-06-10T03:01:32.173Z,10.33
2019-06-10T03:06:29.798Z,9.17
2019-06-10T03:11:27.332Z,8.27
2019-06-10T03:16:26.428Z,8.87
2019-06-10T03:21:24.219Z,12.13
2019-06-10T03:26:21.894Z,8.43
2019-06-10T03:31:18.818Z,7.90
2019-06-10T03:36:16.172Z,8.47
2019-06-10T03:41:12.557Z,8.57
2019-06-10T03:46:08.435Z,8.57
2019-06-10T03:51:04.159Z,10.33
2019-06-10T03:56:02.062Z,9.17
2019-06-10T04:00:57.678Z,8.33
2019-06-10T04:05:53.396Z,8.57
2019-06-10T04:10:49.103Z,8.37
2019-06-10T04:15:44.842Z,8.33
2019-06-10T04:20:42.830Z,9.73
2019-06-10T04:25:42.610Z,8.00
2019-06-10T04:30:37.787Z,9.90
2019-06-10T04:35:33.759Z,10.23
2019-06-10T04:40:29.625Z,10.37
2019-06-10T04:45:26.509Z,10.30
2019-06-10T04:50:33.118Z,12.97
2019-06-10T04:55:23.173Z,10.57
2019-06-10T05:00:19.154Z,11.40
2019-06-10T05:05:15.106Z,11.40
2019-06-10T05:10:12.421Z,9.50
2019-06-10T05:15:08.583Z,9.97
2019-06-10T05:20:05.046Z,9.57
2019-06-10T05:25:02.461Z,9.10
2019-06-10T05:29:58.522Z,9.00
2019-06-10T05:34:54.244Z,10.17
2019-06-10T05:39:49.964Z,10.55
2019-06-10T05:44:45.678Z,10.13
2019-06-10T05:49:43.099Z,9.27
2019-06-10T05:54:38.976Z,11.78
2019-06-10T05:59:35.996Z,9.47
2019-06-10T06:04:33.944Z,10.20
2019-06-10T06:09:29.407Z,8.85
2019-06-10T06:14:25.880Z,10.08
2019-06-10T06:19:23.189Z,9.78
2019-06-10T06:24:18.999Z,9.55
2019-06-10T06:29:14.825Z,8.10
2019-06-10T06:34:13.409Z,11.10
2019-06-10T06:39:08.164Z,8.45
2019-06-10T06:44:04.316Z,8.70
2019-06-10T06:49:01.978Z,9.45
2019-06-10T06:53:57.634Z,9.95
2019-06-10T06:58:53.435Z,10.23
2019-06-10T07:03:49.188Z,10.63
2019-06-10T07:09:00.383Z,10.35
2019-06-10T07:13:45.546Z,8.73
2019-06-10T07:18:49.065Z,9.80
2019-06-10T07:23:41.104Z,9.55
2019-06-10T07:28:38.411Z,10.25
2019-06-10T07:33:37.150Z,12.90
2019-06-10T07:38:34.041Z,9.93
2019-06-10T07:43:29.154Z,8.58
2019-06-10T07:48:24.865Z,9.65
2019-06-10T07:53:22.264Z,10.20
2019-06-10T07:58:18.206Z,9.10
2019-06-10T08:03:13.996Z,8.90
2019-06-10T08:08:09.712Z,9.13
2019-06-10T08:13:05.529Z,9.73
2019-06-10T08:18:04.145Z,10.93
2019-06-10T08:22:58.910Z,7.20
2019-06-10T08:27:54.923Z,8.33
2019-06-10T08:32:55.140Z,8.00
2019-06-10T08:37:48.271Z,8.33
2019-06-10T08:42:46.635Z,7.37
2019-06-10T08:47:44.308Z,7.08
2019-06-10T08:52:56.933Z,6.90
2019-06-10T08:57:38.397Z,8.98
2019-06-10T09:02:34.702Z,8.40
2019-06-10T09:07:32.308Z,6.47
2019-06-10T09:12:33.164Z,6.17
2019-06-10T09:17:26.290Z,5.25
2019-06-10T09:22:23.606Z,5.85
2019-06-10T09:27:19.554Z,6.55
2019-06-10T09:32:15.573Z,5.30
2019-06-10T09:37:12.456Z,5.60
2019-06-10T09:42:08.312Z,8.08
2019-06-10T09:47:04.552Z,6.15
2019-06-10T09:52:03.126Z,4.40
2019-06-10T09:56:57.862Z,7.37
2019-06-10T10:02:00.044Z,5.92
2019-06-10T10:06:57.179Z,6.75
2019-06-10T10:11:51.341Z,7.33
2019-06-10T10:16:52.161Z,5.65
2019-06-10T10:21:49.445Z,8.78
2019-06-10T10:26:46.712Z,5.75
2019-06-10T10:31:43.425Z,3.60
2019-06-10T10:36:38.407Z,3.10
2019-06-10T10:41:34.431Z,7.35
2019-06-10T10:46:32.596Z,5.58
2019-06-10T10:51:28.448Z,5.67
2019-06-10T10:56:24.254Z,4.97
2019-06-10T11:01:23.184Z,4.90
2019-06-10T11:06:18.317Z,4.65
2019-06-10T11:11:14.523Z,5.58
2019-06-10T11:16:10.239Z,4.42
2019-06-10T11:21:05.977Z,3.92
2019-06-10T11:26:02.172Z,6.70
2019-06-10T11:30:58.668Z,5.97
2019-06-10T11:35:56.975Z,4.20
2019-06-10T11:40:54.967Z,4.17
2019-06-10T11:45:55.071Z,3.98
2019-06-10T11:50:49.154Z,3.52
2019-06-10T11:55:45.142Z,8.15
2019-06-10T12:00:42.658Z,4.87
2019-06-10T12:05:38.481Z,6.42
2019-06-10T12:10:34.217Z,5.30
2019-06-10T12:15:34.770Z,3.55
2019-06-10T12:20:28.562Z,4.12
2019-06-10T12:25:32.624Z,4.00
2019-06-10T12:30:22.432Z,4.33
2019-06-10T12:35:18.828Z,4.85
2019-06-10T12:40:15.022Z,4.72
2019-06-10T12:45:12.766Z,6.15
2019-06-10T12:50:12.136Z,5.25
2019-06-10T12:55:08.394Z,4.87
2019-06-10T13:00:19.228Z,4.60
2019-06-10T13:05:08.686Z,8.00
2019-06-10T13:10:05.723Z,5.97
2019-06-10T13:15:04.997Z,3.92
2019-06-10T13:20:01.232Z,5.70
2019-06-10T13:24:58.634Z,5.80
2019-06-10T13:29:56.227Z,5.80
2019-06-10T13:34:52.781Z,7.65
2019-06-10T13:39:48.902Z,8.03
2019-06-10T13:44:44.641Z,6.85
2019-06-10T13:49:42.689Z,7.08
2019-06-10T13:54:37.926Z,6.92
2019-06-10T13:59:33.673Z,6.20
2019-06-10T14:04:29.384Z,5.12
2019-06-10T14:09:25.371Z,8.20
2019-06-10T14:14:22.993Z,5.97
2019-06-10T14:19:18.902Z,5.33
2019-06-10T14:24:16.240Z,5.03
2019-06-10T14:29:15.410Z,5.33
2019-06-10T14:34:12.088Z,5.90
2019-06-10T14:39:08.120Z,6.87
2019-06-10T14:44:04.922Z,3.72
2019-06-10T14:49:02.685Z,6.97
2019-06-10T14:53:58.384Z,4.80
2019-06-10T14:58:54.098Z,22.02
2019-06-10T15:03:52.169Z,5.05
2019-06-10T15:08:47.839Z,7.97
2019-06-10T15:13:43.643Z,7.45
2019-06-10T15:18:39.443Z,6.12
2019-06-10T15:23:35.153Z,5.60
2019-06-10T15:28:31.171Z,3.92
2019-06-10T15:33:26.924Z,4.47
2019-06-10T15:38:23.341Z,6.65
2019-06-10T15:43:20.754Z,5.75
2019-06-10T15:48:18.503Z,5.35
2019-06-10T15:53:17.535Z,4.78
2019-06-10T15:58:12.934Z,8.78
2019-06-10T16:03:12.095Z,5.53
2019-06-10T16:08:07.672Z,6.85
2019-06-10T16:13:03.530Z,7.87
2019-06-10T16:17:59.486Z,5.40
2019-06-10T16:22:55.515Z,7.22
2019-06-10T16:27:54.273Z,4.22
2019-06-10T16:32:49.172Z,8.65
2019-06-10T16:37:44.927Z,7.37
2019-06-10T16:42:42.953Z,5.72
2019-06-10T16:47:38.375Z,7.00
2019-06-10T16:52:34.422Z,8.25
2019-06-10T16:57:30.318Z,3.87
2019-06-10T17:02:26.866Z,5.15
2019-06-10T17:07:22.798Z,7.12
2019-06-10T17:12:19.797Z,6.45
2019-06-10T17:17:15.683Z,9.15
2019-06-10T17:22:12.626Z,8.20
2019-06-10T17:27:08.490Z,7.35
2019-06-10T17:32:04.330Z,8.65
2019-06-10T17:37:00.047Z,8.88
2019-06-10T17:41:55.744Z,7.37
2019-06-10T17:46:52.840Z,9.05
2019-06-10T17:51:49.031Z,7.75
2019-06-10T17:56:44.938Z,11.28
2019-06-10T18:01:40.670Z,11.10
2019-06-10T18:06:36.649Z,13.90
2019-06-10T18:11:34.504Z,14.10
2019-06-10T18:16:30.354Z,11.30
2019-06-10T18:21:26.417Z,14.87
2019-06-10T18:26:23.105Z,12.25
2019-06-10T18:31:19.370Z,12.33
2019-06-10T18:36:15.176Z,12.05
2019-06-10T18:41:12.857Z,14.80
2019-06-10T18:46:08.731Z,12.90
2019-06-10T18:51:04.891Z,15.40
2019-06-10T18:56:00.601Z,15.93
2019-06-10T19:01:03.605Z,19.77
2019-06-10T19:05:53.951Z,13.60
2019-06-10T19:10:49.981Z,18.60
2019-06-10T19:15:45.774Z,17.10
2019-06-10T19:20:45.130Z,14.95
2019-06-10T19:25:41.344Z,15.35
2019-06-10T19:30:38.858Z,12.60
2019-06-10T19:35:36.667Z,13.10
2019-06-10T19:40:35.260Z,11.97
2019-06-10T19:45:32.077Z,15.63
2019-06-10T19:50:28.072Z,16.00
2019-06-10T19:55:23.797Z,15.57
2019-06-10T20:00:22.049Z,15.90
2019-06-10T20:05:18.814Z,17.47
2019-06-10T20:10:14.628Z,19.77
2019-06-10T20:15:23.414Z,17.63
2019-06-10T20:20:19.332Z,17.13
2019-06-10T20:25:15.248Z,16.50
2019-06-10T20:30:23.757Z,20.17
2019-06-10T20:35:12.387Z,15.70
2019-06-10T20:40:08.533Z,15.83
2019-06-10T20:45:05.264Z,16.43
2019-06-10T20:50:03.143Z,16.37
2019-06-10T20:54:59.233Z,16.07
2019-06-10T20:59:54.930Z,14.87
2019-06-10T21:04:53.056Z,14.67
2019-06-10T21:09:50.635Z,16.52
2019-06-10T21:14:47.239Z,13.78
2019-06-10T21:19:44.940Z,14.33
2019-06-10T21:24:42.487Z,15.30
2019-06-10T21:29:38.552Z,18.20
2019-06-10T21:34:34.274Z,12.93
2019-06-10T21:39:32.134Z,13.20
2019-06-10T21:44:27.655Z,15.87
2019-06-10T21:49:23.902Z,14.43
2019-06-10T21:54:19.777Z,18.37
2019-06-10T21:59:15.483Z,21.37
2019-06-10T22:04:13.358Z,19.53
2019-06-10T22:09:08.882Z,20.47
2019-06-10T22:14:04.700Z,16.90
2019-06-10T22:19:03.157Z,15.57
2019-06-10T22:23:57.988Z,14.20
2019-06-10T22:28:55.845Z,16.80
2019-06-10T22:33:54.289Z,16.80
2019-06-10T22:38:49.814Z,16.03
2019-06-10T22:43:45.567Z,15.60
2019-06-10T22:48:42.504Z,15.70
2019-06-10T22:53:38.390Z,16.30
2019-06-10T22:58:34.338Z,16.95
2019-06-10T23:03:30.061Z,17.03
2019-06-10T23:08:25.773Z,18.70
2019-06-10T23:13:23.153Z,17.37
2019-06-10T23:18:19.312Z,15.53
2019-06-10T23:23:15.153Z,14.98
2019-06-10T23:28:12.999Z,14.00
2019-06-10T23:33:08.795Z,15.47
2019-06-10T23:38:05.221Z,16.87
2019-06-10T23:43:03.426Z,17.37
2019-06-10T23:47:59.546Z,18.53
2019-06-10T23:53:00.170Z,17.43
2019-06-10T23:57:54.762Z,18.13
